Time;durP1;ratioP1;P1;durP2;ratioP2;P2;SDS_P1;SDS_P2;PMS_P1;PMS_P2;Temp;Humidity;BMP_temperature;BMP_pressure;BME280_temperature;BME280_humidity;BME280_pressure;Samples;Min_cycle;Max_cycle;Signal;HPM_P1;HPM_P2
2023/04/18 00:00:13;;;;;;;11.82;5.82;;;;;;;7.37;100.00;101831.13;5159558;28;20534;-75
2023/04/18 00:02:44;;;;;;;11.80;5.80;;;;;;;7.28;100.00;101829.41;5156589;28;20310;-75
2023/04/18 00:05:16;;;;;;;11.55;5.53;;;;;;;7.55;100.00;101831.91;5161277;28;20487;-75
2023/04/18 00:07:47;;;;;;;10.88;5.47;;;;;;;7.42;100.00;101830.25;5161272;28;20385;-75
2023/04/18 00:10:17;;;;;;;11.70;5.22;;;;;;;7.38;100.00;101831.09;5154321;28;20081;-75
2023/04/18 00:12:48;;;;;;;11.13;5.80;;;;;;;7.25;100.00;101828.56;5157527;28;20122;-71
2023/04/18 00:15:18;;;;;;;12.65;5.78;;;;;;;7.33;100.00;101835.47;5156250;28;20030;-75
2023/04/18 00:17:48;;;;;;;12.07;5.85;;;;;;;7.26;100.00;101834.63;5138457;28;20455;-72
2023/04/18 00:20:19;;;;;;;11.25;6.00;;;;;;;7.33;100.00;101835.47;5150964;28;20474;-75
2023/04/18 00:22:49;;;;;;;11.30;5.45;;;;;;;7.25;100.00;101833.75;5139667;28;20127;-72
2023/04/18 00:25:19;;;;;;;11.63;5.85;;;;;;;7.37;100.00;101831.13;5164241;28;20030;-74
2023/04/18 00:27:49;;;;;;;11.30;6.45;;;;;;;7.19;100.00;101831.19;5161419;28;20029;-73
2023/04/18 00:30:20;;;;;;;14.70;6.63;;;;;;;7.11;100.00;101832.06;5143598;28;20030;-72
2023/04/18 00:32:50;;;;;;;12.20;5.72;;;;;;;7.18;100.00;101831.16;5153816;28;20027;-75
2023/04/18 00:35:20;;;;;;;12.45;5.80;;;;;;;7.28;100.00;101832.03;5157171;28;20424;-75
2023/04/18 00:37:51;;;;;;;14.95;6.57;;;;;;;7.30;100.00;101829.41;5156215;28;20060;-75
2023/04/18 00:40:21;;;;;;;12.98;6.72;;;;;;;7.18;100.00;101833.75;5156654;28;20122;-75
2023/04/18 00:42:51;;;;;;;13.35;6.28;;;;;;;7.14;100.00;101838.09;5154542;28;20030;-75
2023/04/18 00:45:22;;;;;;;11.90;6.28;;;;;;;7.15;100.00;101832.06;5158318;28;20022;-75
2023/04/18 00:47:55;;;;;;;12.82;6.40;;;;;;;7.13;100.00;101838.97;5164452;28;20088;-74
2023/04/18 00:50:25;;;;;;;14.52;6.72;;;;;;;7.09;100.00;101831.19;5157019;28;20037;-75
2023/04/18 00:52:57;;;;;;;13.60;6.38;;;;;;;7.09;100.00;101837.25;5154056;28;20019;-74
2023/04/18 00:55:28;;;;;;;12.88;6.32;;;;;;;7.01;100.00;101833.81;5156232;28;20029;-75
2023/04/18 00:57:58;;;;;;;12.82;6.55;;;;;;;7.05;100.00;101830.31;5141709;28;20112;-74
2023/04/18 01:00:28;;;;;;;16.80;7.47;;;;;;;7.11;100.00;101826.84;5163342;28;20125;-74
2023/04/18 01:02:59;;;;;;;11.02;6.18;;;;;;;7.09;100.00;101823.41;5164014;28;20033;-75
2023/04/18 01:05:30;;;;;;;13.70;6.75;;;;;;;6.93;100.00;101830.31;5161408;28;20041;-76
2023/04/18 01:08:01;;;;;;;13.52;6.93;;;;;;;6.91;100.00;101829.47;5154898;28;20027;-72
2023/04/18 01:10:31;;;;;;;12.38;6.25;;;;;;;7.11;100.00;101829.47;5156567;28;20072;-72
2023/04/18 01:13:26;;;;;;;11.80;6.22;;;;;;;6.83;100.00;101822.53;5157522;28;20593;-73
2023/04/18 01:15:57;;;;;;;15.10;6.53;;;;;;;6.90;100.00;101834.69;5165483;28;20032;-75
2023/04/18 01:18:30;;;;;;;10.65;5.93;;;;;;;6.85;100.00;101832.06;5447865;23;20042;-72
2023/04/18 01:21:00;;;;;;;11.57;6.22;;;;;;;6.82;100.00;101836.41;6189682;23;20041;-71
2023/04/18 01:23:31;;;;;;;12.50;6.40;;;;;;;6.83;100.00;101836.41;6192442;23;20080;-70
2023/04/18 01:26:01;;;;;;;12.68;6.63;;;;;;;6.75;100.00;101832.09;6188598;23;20045;-71
2023/04/18 01:28:35;;;;;;;12.50;6.10;;;;;;;6.67;100.00;101833.81;6191048;23;20333;-72
2023/04/18 01:31:05;;;;;;;11.75;6.50;;;;;;;6.69;100.00;101832.94;6198724;23;20029;-72
2023/04/18 01:33:36;;;;;;;15.90;7.07;;;;;;;6.80;100.00;101828.59;6209834;23;20024;-71
2023/04/18 01:36:06;;;;;;;16.95;6.80;;;;;;;6.84;100.00;101826.88;6197995;23;20029;-73
2023/04/18 01:38:37;;;;;;;13.02;7.30;;;;;;;6.92;100.00;101817.34;6201018;23;20027;-71
2023/04/18 01:41:07;;;;;;;14.18;7.20;;;;;;;6.77;100.00;101819.97;6202175;23;20054;-73
2023/04/18 01:43:37;;;;;;;15.57;7.03;;;;;;;6.73;100.00;101820.84;6207723;23;20103;-72
2023/04/18 01:46:08;;;;;;;12.95;6.63;;;;;;;6.75;100.00;101825.13;6196053;23;20464;-73
2023/04/18 01:48:38;;;;;;;12.73;6.85;;;;;;;6.76;100.00;101826.03;6205726;23;20459;-71
2023/04/18 01:51:09;;;;;;;14.85;7.22;;;;;;;6.77;100.00;101819.97;6196983;23;20017;-72
2023/04/18 01:53:39;;;;;;;15.32;7.20;;;;;;;6.72;100.00;101816.47;6202106;23;20023;-72
2023/04/18 01:56:09;;;;;;;16.70;7.60;;;;;;;6.72;100.00;101816.47;6204056;23;20009;-73
2023/04/18 01:58:40;;;;;;;14.68;7.90;;;;;;;6.84;100.00;101808.69;6206334;23;20486;-72
2023/04/18 02:01:10;;;;;;;11.75;6.50;;;;;;;7.03;100.00;101810.38;6199312;23;20017;-72
2023/04/18 02:03:41;;;;;;;15.57;7.97;;;;;;;7.06;100.00;101811.25;6203031;23;20092;-72
2023/04/18 02:06:11;;;;;;;15.43;7.90;;;;;;;6.92;100.00;101812.16;6198930;23;20481;-72
2023/04/18 02:08:41;;;;;;;14.63;7.47;;;;;;;6.86;100.00;101812.13;6206956;23;20027;-72
2023/04/18 02:11:12;;;;;;;17.13;8.13;;;;;;;6.69;100.00;101813.88;6181609;23;20029;-72
2023/04/18 02:13:42;;;;;;;16.25;7.43;;;;;;;6.78;100.00;101808.69;6205560;23;20013;-70
2023/04/18 02:16:12;;;;;;;15.30;8.20;;;;;;;6.71;100.00;101807.84;6200666;23;20064;-73
2023/04/18 02:18:43;;;;;;;17.15;8.23;;;;;;;6.73;100.00;101805.25;6207016;23;20444;-72
2023/04/18 02:21:13;;;;;;;19.77;8.82;;;;;;;6.73;100.00;101798.31;6199213;23;20046;-72
2023/04/18 02:23:44;;;;;;;19.42;8.35;;;;;;;6.87;100.00;101806.06;6207455;23;20481;-72
2023/04/18 02:26:14;;;;;;;17.80;8.25;;;;;;;6.79;100.00;101800.03;6198714;23;20026;-72
2023/04/18 02:28:44;;;;;;;16.63;8.23;;;;;;;6.72;100.00;101808.69;6200652;23;20048;-72
2023/04/18 02:31:15;;;;;;;16.67;8.82;;;;;;;6.67;100.00;101807.81;6200485;23;20025;-73
2023/04/18 02:33:48;;;;;;;17.58;8.93;;;;;;;6.83;100.00;101806.94;6208472;23;20016;-72
2023/04/18 02:36:19;;;;;;;20.80;9.93;;;;;;;6.75;100.00;101808.72;6202842;23;20018;-73
2023/04/18 02:38:49;;;;;;;25.67;8.57;;;;;;;6.77;100.00;101801.78;6207896;23;20100;-71
2023/04/18 02:41:19;;;;;;;15.30;7.95;;;;;;;6.96;100.00;101798.28;6205894;23;20010;-72
2023/04/18 02:43:50;;;;;;;17.75;8.65;;;;;;;7.05;100.00;101806.94;6212843;23;20301;-71
2023/04/18 02:46:20;;;;;;;22.08;9.27;;;;;;;6.95;100.00;101800.00;6199425;23;20602;-72
2023/04/18 02:48:50;;;;;;;17.35;8.63;;;;;;;6.91;100.00;101808.69;6205473;23;20021;-73
2023/04/18 02:51:20;;;;;;;17.83;8.75;;;;;;;6.73;100.00;101805.25;6200492;23;20056;-73
2023/04/18 02:53:53;;;;;;;16.13;8.13;;;;;;;6.87;100.00;101804.34;6205669;23;20048;-72
2023/04/18 02:56:24;;;;;;;15.80;8.65;;;;;;;6.78;100.00;101804.34;6200693;23;20047;-72
2023/04/18 02:58:54;;;;;;;17.73;8.27;;;;;;;6.77;100.00;101806.97;6205043;23;20056;-72
2023/04/18 03:01:24;;;;;;;16.58;8.60;;;;;;;6.69;100.00;101812.16;6203838;23;20209;-72
2023/04/18 03:03:55;;;;;;;17.05;8.32;;;;;;;6.86;100.00;101807.81;6182859;23;20486;-72
2023/04/18 03:06:26;;;;;;;21.95;9.48;;;;;;;6.80;100.00;101810.41;6202338;23;20048;-72
2023/04/18 03:08:56;;;;;;;22.77;9.90;;;;;;;6.81;100.00;101813.88;6208186;23;20021;-73
2023/04/18 03:11:26;;;;;;;21.42;8.85;;;;;;;6.79;100.00;101811.28;6209598;23;20396;-73
2023/04/18 03:13:57;;;;;;;17.35;8.15;;;;;;;6.83;100.00;101812.16;6206322;23;20017;-73
2023/04/18 03:16:27;;;;;;;17.55;8.25;;;;;;;6.71;100.00;101814.75;6205282;23;20535;-72
2023/04/18 03:18:57;;;;;;;15.80;7.75;;;;;;;6.96;100.00;101813.88;6207634;23;20067;-72
2023/04/18 03:21:28;;;;;;;20.27;8.95;;;;;;;6.90;100.00;101804.34;6206839;23;20094;-73
2023/04/18 03:23:58;;;;;;;16.70;8.68;;;;;;;6.79;100.00;101820.81;6206205;23;20017;-73
2023/04/18 03:26:28;;;;;;;17.10;8.50;;;;;;;6.77;100.00;101817.34;6204624;23;20040;-72
2023/04/18 03:28:59;;;;;;;18.10;8.55;;;;;;;6.76;100.00;101820.81;6180938;23;20024;-72
2023/04/18 03:31:30;;;;;;;16.33;8.57;;;;;;;6.98;100.00;101802.63;6204868;23;20014;-73
2023/04/18 03:34:01;;;;;;;17.35;8.55;;;;;;;6.81;100.00;101822.56;6210287;23;20017;-73
2023/04/18 03:36:31;;;;;;;16.98;8.93;;;;;;;6.77;100.00;101817.34;6207795;23;20018;-72
2023/04/18 03:39:01;;;;;;;17.42;8.60;;;;;;;6.83;100.00;101814.75;6209063;23;20060;-71
2023/04/18 03:41:31;;;;;;;16.02;8.52;;;;;;;6.74;100.00;101818.22;6212423;23;20053;-70
2023/04/18 03:44:02;;;;;;;17.80;8.30;;;;;;;6.81;100.00;101819.09;6207645;23;20045;-71
2023/04/18 03:46:32;;;;;;;18.67;8.85;;;;;;;6.66;100.00;101824.28;6207424;23;20033;-70
2023/04/18 03:49:02;;;;;;;17.02;8.40;;;;;;;6.76;100.00;101826.03;6210093;23;20021;-70
2023/04/18 03:51:41;;;;;;;19.95;8.95;;;;;;;6.78;100.00;101832.06;6207760;23;20072;-72
2023/04/18 03:54:12;;;;;;;17.90;8.55;;;;;;;6.76;100.00;101826.88;6203500;23;20024;-72
2023/04/18 03:56:42;;;;;;;17.58;8.93;;;;;;;6.93;100.00;101821.69;6212290;23;20519;-72
2023/04/18 03:59:14;;;;;;;17.88;8.55;;;;;;;6.74;100.00;101827.75;6203312;23;20034;-72
2023/04/18 04:01:44;;;;;;;16.33;8.63;;;;;;;6.70;100.00;101821.69;6211502;23;20227;-70
2023/04/18 04:04:15;;;;;;;18.90;8.02;;;;;;;6.86;100.00;101818.22;6203379;23;20532;-72
2023/04/18 04:06:45;;;;;;;16.77;7.45;;;;;;;6.86;100.00;101815.63;6212848;23;20032;-70
2023/04/18 04:09:15;;;;;;;16.98;8.35;;;;;;;6.78;100.00;101819.09;6203790;23;20377;-72
2023/04/18 04:11:46;;;;;;;17.77;8.63;;;;;;;6.73;100.00;101818.22;6207590;23;20025;-72
2023/04/18 04:14:16;;;;;;;15.63;8.52;;;;;;;6.85;100.00;101833.78;6204762;23;20017;-72
2023/04/18 04:16:46;;;;;;;18.55;8.30;;;;;;;6.80;100.00;101826.00;6212781;23;20443;-72
2023/04/18 04:19:17;;;;;;;16.92;8.48;;;;;;;6.73;100.00;101839.88;6207961;23;20030;-72
2023/04/18 04:21:47;;;;;;;15.70;8.45;;;;;;;6.73;100.00;101841.63;6215533;23;20100;-72
2023/04/18 04:24:19;;;;;;;17.80;8.57;;;;;;;6.69;100.00;101845.06;6210075;23;20246;-73
2023/04/18 04:26:49;;;;;;;20.80;8.70;;;;;;;6.78;100.00;101850.25;6207596;23;20049;-72
2023/04/18 04:29:20;;;;;;;17.80;8.18;;;;;;;6.70;100.00;101846.78;6200612;23;20041;-72
2023/04/18 04:31:51;;;;;;;17.17;8.25;;;;;;;6.80;100.00;101857.19;6212599;23;20071;-72
2023/04/18 04:34:21;;;;;;;13.27;7.13;;;;;;;6.79;100.00;101846.81;6207503;23;20076;-73
2023/04/18 04:36:53;;;;;;;14.98;7.60;;;;;;;6.65;100.00;101861.50;6214793;23;20531;-72
2023/04/18 04:39:23;;;;;;;17.60;7.68;;;;;;;6.71;100.00;101858.91;6205424;23;20104;-72
2023/04/18 04:41:54;;;;;;;15.48;7.53;;;;;;;6.62;100.00;101858.91;6218044;23;20502;-72
2023/04/18 04:44:25;;;;;;;15.65;7.93;;;;;;;6.70;100.00;101867.56;6180418;23;20107;-73
2023/04/18 04:46:56;;;;;;;16.88;8.25;;;;;;;6.67;100.00;101868.44;6211498;23;20028;-72
2023/04/18 04:49:26;;;;;;;15.27;7.65;;;;;;;6.64;100.00;101872.75;6206879;23;20018;-72
2023/04/18 04:51:56;;;;;;;14.50;7.53;;;;;;;6.65;100.00;101864.09;6211088;23;20152;-73
2023/04/18 04:54:27;;;;;;;17.35;8.57;;;;;;;6.72;100.00;101871.03;6207809;23;20018;-72
2023/04/18 04:56:57;;;;;;;16.88;8.13;;;;;;;6.62;100.00;101872.75;6211161;23;20021;-71
2023/04/18 04:59:27;;;;;;;16.88;7.95;;;;;;;6.65;100.00;101869.31;6206392;23;20025;-72
2023/04/18 05:01:58;;;;;;;16.27;7.68;;;;;;;6.67;100.00;101880.56;6208520;23;20021;-72
2023/04/18 05:04:28;;;;;;;13.98;7.15;;;;;;;6.71;100.00;101879.69;6210210;23;20097;-73
2023/04/18 05:06:58;;;;;;;16.92;8.30;;;;;;;6.71;100.00;101882.28;6211004;23;20452;-72
2023/04/18 05:09:29;;;;;;;13.52;7.20;;;;;;;6.75;100.00;101884.03;6209406;23;20104;-72
2023/04/18 05:12:00;;;;;;;16.70;7.80;;;;;;;6.79;100.00;101888.38;6218971;23;20422;-73
2023/04/18 05:14:30;;;;;;;14.82;7.50;;;;;;;6.69;100.00;101891.81;6215367;23;20014;-73
2023/04/18 05:17:01;;;;;;;15.85;7.75;;;;;;;6.67;100.00;101894.44;6210195;23;20559;-73
2023/04/18 05:19:31;;;;;;;15.35;7.55;;;;;;;6.66;100.00;101895.28;6213291;23;20024;-73
2023/04/18 05:22:02;;;;;;;15.63;7.00;;;;;;;6.85;100.00;101898.75;6210944;23;20017;-72
2023/04/18 05:24:32;;;;;;;14.10;7.25;;;;;;;6.83;100.00;101893.56;6194024;23;20018;-73
2023/04/18 05:27:03;;;;;;;15.75;7.60;;;;;;;6.78;100.00;101902.22;6217716;23;20048;-71
2023/04/18 05:29:33;;;;;;;13.48;7.22;;;;;;;6.80;100.00;101905.69;6214409;23;20021;-70
2023/04/18 05:32:04;;;;;;;13.18;7.28;;;;;;;6.89;100.00;101906.56;6212320;23;20017;-70
2023/04/18 05:34:36;;;;;;;14.75;6.75;;;;;;;6.86;100.00;101916.06;6192375;23;20024;-71
2023/04/18 05:37:06;;;;;;;14.30;7.13;;;;;;;6.73;100.00;101912.59;6205919;23;20395;-73
2023/04/18 05:39:36;;;;;;;18.83;6.93;;;;;;;6.86;100.00;101911.75;6207013;23;20056;-72
2023/04/18 05:42:07;;;;;;;11.95;6.55;;;;;;;6.76;100.00;101914.34;6209155;23;20489;-72
2023/04/18 05:44:37;;;;;;;13.25;7.05;;;;;;;6.94;100.00;101910.03;6214953;23;20509;-72
2023/04/18 05:47:08;;;;;;;15.38;7.05;;;;;;;6.99;100.00;101907.44;6186250;23;20089;-73
2023/04/18 05:49:38;;;;;;;15.02;7.05;;;;;;;6.78;100.00;101903.06;6219077;23;20025;-73
2023/04/18 05:52:08;;;;;;;15.80;7.20;;;;;;;6.83;100.00;101908.28;6212890;23;20013;-72
2023/04/18 05:54:39;;;;;;;13.68;7.00;;;;;;;7.07;100.00;101908.31;6212526;23;20459;-72
2023/04/18 05:57:10;;;;;;;13.80;6.28;;;;;;;6.90;100.00;101910.03;6200254;23;20539;-70
2023/04/18 05:59:47;;;;;;;14.00;7.32;;;;;;;6.83;100.00;101910.88;5277610;27;20412;-72
2023/04/18 06:02:17;;;;;;;13.10;6.57;;;;;;;7.03;100.00;101911.75;5276672;28;20628;-72
2023/04/18 06:04:48;;;;;;;10.02;6.13;;;;;;;6.95;100.00;101916.09;5277428;28;20338;-71
2023/04/18 06:07:20;;;;;;;12.55;6.18;;;;;;;6.82;100.00;101903.97;5275642;28;20020;-72
2023/04/18 06:09:52;;;;;;;16.05;7.40;;;;;;;6.84;100.00;101917.81;5277462;28;20032;-72
2023/04/18 06:12:23;;;;;;;15.57;7.85;;;;;;;6.88;100.00;101916.94;5283247;22;20566;-71
2023/04/18 06:14:53;;;;;;;12.55;6.82;;;;;;;7.03;100.00;101929.94;5228063;28;20064;-72
2023/04/18 06:17:24;;;;;;;13.70;6.63;;;;;;;6.87;100.00;101928.19;5219009;28;20025;-70
2023/04/18 06:19:54;;;;;;;14.00;7.18;;;;;;;6.87;100.00;101929.09;5233770;28;20063;-72
2023/04/18 06:22:24;;;;;;;13.32;7.20;;;;;;;6.85;100.00;101932.53;5225860;28;20029;-73
2023/04/18 06:24:55;;;;;;;12.73;7.10;;;;;;;6.95;100.00;101932.53;5223659;28;20021;-72
2023/04/18 06:27:26;;;;;;;12.18;6.65;;;;;;;6.92;100.00;101936.88;5226110;28;20359;-70
2023/04/18 06:29:56;;;;;;;15.10;7.82;;;;;;;6.94;100.00;101942.94;5222363;28;20028;-72
2023/04/18 06:32:27;;;;;;;13.82;7.68;;;;;;;6.93;100.00;101949.88;5223740;28;20028;-73
2023/04/18 06:34:57;;;;;;;16.92;7.13;;;;;;;6.95;100.00;101949.88;5221760;28;20714;-72
2023/04/18 06:37:28;;;;;;;13.60;7.15;;;;;;;7.18;100.00;101943.84;5225858;28;20032;-72
2023/04/18 06:39:58;;;;;;;13.50;7.10;;;;;;;7.08;100.00;101942.09;5220843;28;20048;-72
2023/04/18 06:42:28;;;;;;;12.93;7.22;;;;;;;7.33;100.00;101942.09;5225008;28;20032;-70
2023/04/18 06:44:59;;;;;;;14.18;7.30;;;;;;;7.21;100.00;101946.44;5225115;28;20028;-72
2023/04/18 06:47:29;;;;;;;12.27;6.47;;;;;;;7.24;100.00;101943.81;5220615;28;20025;-72
2023/04/18 06:50:00;;;;;;;16.73;6.85;;;;;;;7.13;100.00;101953.34;5223312;28;20120;-73
2023/04/18 06:52:30;;;;;;;13.52;7.00;;;;;;;7.30;100.00;101952.50;5226058;28;20186;-73
2023/04/18 06:55:00;;;;;;;11.65;6.07;;;;;;;7.41;100.00;101947.28;5223596;28;20393;-72
2023/04/18 06:57:31;;;;;;;15.65;6.68;;;;;;;7.59;100.00;101960.25;5221543;28;20037;-72
2023/04/18 07:00:02;;;;;;;12.23;6.70;;;;;;;7.41;100.00;101960.28;5223355;28;20044;-72
2023/04/18 07:02:34;;;;;;;15.18;6.70;;;;;;;7.84;100.00;101957.59;5223348;28;20024;-72
2023/04/18 07:05:06;;;;;;;10.98;5.78;;;;;;;7.86;100.00;101961.06;5221005;28;20036;-70
2023/04/18 07:07:36;;;;;;;11.15;6.15;;;;;;;7.66;100.00;101972.41;5223265;28;20079;-72
2023/04/18 07:10:08;;;;;;;14.10;6.28;;;;;;;7.51;100.00;101973.28;5211012;28;20502;-72
2023/04/18 07:12:38;;;;;;;12.02;6.43;;;;;;;7.50;100.00;101979.34;5217699;28;20048;-73
2023/04/18 07:15:09;;;;;;;13.27;6.60;;;;;;;7.45;100.00;101968.09;5230181;28;20059;-72
2023/04/18 07:17:40;;;;;;;13.85;6.75;;;;;;;7.66;100.00;101973.25;5227482;28;20086;-72
2023/04/18 07:20:10;;;;;;;10.88;6.25;;;;;;;7.72;100.00;101968.03;5227802;28;20095;-72
2023/04/18 07:22:41;;;;;;;12.73;6.47;;;;;;;7.85;100.00;101974.09;5233528;28;20060;-74
2023/04/18 07:25:11;;;;;;;13.90;6.63;;;;;;;7.83;100.00;101976.69;5227998;28;20478;-72
2023/04/18 07:27:41;;;;;;;12.73;6.07;;;;;;;7.76;100.00;101969.78;5226877;28;20182;-73
2023/04/18 07:30:12;;;;;;;12.10;6.22;;;;;;;7.83;100.00;101976.69;5228557;28;20036;-73
2023/04/18 07:32:43;;;;;;;11.60;6.28;;;;;;;7.71;100.00;101981.91;5231547;28;20029;-71
2023/04/18 07:35:14;;;;;;;12.43;6.75;;;;;;;7.89;100.00;101975.81;5232704;28;20031;-72
2023/04/18 07:37:44;;;;;;;11.68;6.57;;;;;;;7.94;100.00;101964.53;5229877;28;20024;-72
2023/04/18 07:40:15;;;;;;;14.73;6.95;;;;;;;8.32;100.00;101956.59;5230485;28;20036;-73
2023/04/18 07:42:45;;;;;;;11.98;6.13;;;;;;;8.15;100.00;101961.84;5228355;28;20021;-74
2023/04/18 07:45:16;;;;;;;12.20;6.32;;;;;;;8.23;100.00;101962.72;5229041;28;20027;-73
2023/04/18 07:47:46;;;;;;;12.55;6.10;;;;;;;8.57;100.00;101966.06;5227100;28;20437;-72
2023/04/18 07:50:17;;;;;;;12.00;6.53;;;;;;;8.09;100.00;101964.50;5226508;28;20123;-72
2023/04/18 07:52:47;;;;;;;11.13;6.22;;;;;;;7.96;100.00;101970.59;5231586;28;20048;-75
2023/04/18 07:55:18;;;;;;;11.52;6.15;;;;;;;8.13;100.00;101980.94;5228355;28;20111;-74
2023/04/18 07:57:49;;;;;;;11.70;6.75;;;;;;;8.28;100.00;101965.31;5226221;28;20029;-69
2023/04/18 08:00:19;;;;;;;11.20;6.45;;;;;;;8.23;100.00;101967.91;5226846;28;20509;-71
2023/04/18 08:02:50;;;;;;;14.02;6.78;;;;;;;8.23;100.00;101970.53;5225587;28;20070;-73
2023/04/18 08:05:20;;;;;;;12.45;6.53;;;;;;;8.54;100.00;101966.06;5227506;28;20165;-72
2023/04/18 08:07:51;;;;;;;10.48;5.85;;;;;;;8.62;98.28;101962.56;5230423;28;20048;-74
2023/04/18 08:10:22;;;;;;;12.77;6.07;;;;;;;8.55;99.46;101971.25;5229425;28;20230;-72
2023/04/18 08:12:52;;;;;;;11.65;6.18;;;;;;;8.79;96.61;101958.09;5227525;28;20288;-72
2023/04/18 08:15:22;;;;;;;11.95;6.15;;;;;;;8.57;97.47;101959.09;5227820;28;20378;-73
2023/04/18 08:17:54;;;;;;;10.98;6.15;;;;;;;8.59;99.60;101969.50;5226189;28;20029;-71
2023/04/18 08:20:24;;;;;;;11.30;5.97;;;;;;;8.69;98.72;101963.38;5232476;28;20490;-72
2023/04/18 08:22:55;;;;;;;10.77;6.38;;;;;;;8.62;99.32;101965.16;5230365;28;20062;-74
2023/04/18 08:25:25;;;;;;;10.82;5.80;;;;;;;8.89;98.66;101967.56;5226034;28;20052;-73
2023/04/18 08:27:56;;;;;;;14.35;6.57;;;;;;;8.88;97.83;101968.47;5224525;28;20471;-74
2023/04/18 08:30:27;;;;;;;9.82;5.57;;;;;;;9.12;96.88;101976.13;5229713;28;20481;-72
2023/04/18 08:33:00;;;;;;;13.18;6.53;;;;;;;9.25;95.16;101965.59;5224669;28;20242;-72
2023/04/18 08:35:31;;;;;;;10.23;5.97;;;;;;;9.28;94.00;101965.56;5225837;28;20020;-72
2023/04/18 08:38:01;;;;;;;11.25;6.20;;;;;;;9.33;94.67;101971.59;5224834;28;20024;-70
2023/04/18 08:40:32;;;;;;;9.07;5.40;;;;;;;9.54;93.91;101978.38;5225435;28;20449;-73
2023/04/18 08:43:08;;;;;;;9.82;5.80;;;;;;;9.84;91.81;101978.09;5221378;28;20502;-71
2023/04/18 08:45:39;;;;;;;10.65;5.85;;;;;;;9.68;92.94;101979.13;5222473;28;20024;-73
2023/04/18 08:48:16;;;;;;;10.80;5.55;;;;;;;9.92;91.63;101976.25;5222925;28;20433;-73
2023/04/18 08:50:47;;;;;;;9.77;5.10;;;;;;;10.49;88.94;101973.00;5225468;28;20032;-72
2023/04/18 08:53:17;;;;;;;10.68;5.53;;;;;;;10.68;88.57;101970.13;5210203;28;20487;-73
2023/04/18 08:55:55;;;;;;;9.52;5.38;;;;;;;11.43;87.03;101959.34;5226454;28;20081;-71
2023/04/18 08:58:26;;;;;;;8.98;5.00;;;;;;;11.52;83.69;101963.56;5225354;28;20104;-72
2023/04/18 09:00:56;;;;;;;7.65;4.80;;;;;;;11.53;84.33;101954.81;5226827;28;20051;-74
2023/04/18 09:03:39;;;;;;;8.73;4.90;;;;;;;11.52;82.76;101960.94;5227923;28;20028;-74
2023/04/18 09:06:12;;;;;;;10.88;5.20;;;;;;;10.83;85.69;101963.81;5223928;28;20424;-74
2023/04/18 09:08:53;;;;;;;10.75;5.30;;;;;;;11.19;84.77;101970.22;5226928;28;20023;-74
2023/04/18 09:11:28;;;;;;;8.43;4.95;;;;;;;11.14;83.80;101982.50;5227761;28;20035;-75
2023/04/18 09:13:59;;;;;;;8.73;5.03;;;;;;;11.37;84.77;101964.69;5224778;28;20521;-72
2023/04/18 09:16:45;;;;;;;9.73;5.25;;;;;;;11.46;83.69;101980.22;5224244;28;20052;-72
2023/04/18 09:19:18;;;;;;;12.77;5.60;;;;;;;11.21;84.61;101976.28;5227570;28;20035;-72
2023/04/18 09:21:57;;;;;;;9.10;4.63;;;;;;;11.77;85.52;101973.59;5225286;28;20371;-71
2023/04/18 09:24:29;;;;;;;8.57;4.80;;;;;;;11.62;83.45;101966.03;5224491;28;20023;-73
2023/04/18 09:27:00;;;;;;;9.02;5.13;;;;;;;11.58;83.26;101969.59;5225534;28;20021;-73
2023/04/18 09:29:48;;;;;;;9.30;4.80;;;;;;;11.59;81.39;101971.31;5231453;28;20068;-73
2023/04/18 09:32:23;;;;;;;9.90;4.53;;;;;;;11.36;82.43;101976.06;5225081;28;20029;-74
2023/04/18 09:34:57;;;;;;;7.65;4.28;;;;;;;11.51;81.82;101973.19;5225125;28;20024;-73
2023/04/18 09:37:28;;;;;;;8.85;5.10;;;;;;;11.20;83.45;101977.19;5223972;28;20021;-69
2023/04/18 09:39:58;;;;;;;9.23;5.45;;;;;;;11.33;84.15;101976.09;5225786;28;20410;-70
2023/04/18 09:42:34;;;;;;;8.32;4.75;;;;;;;11.76;81.60;101969.25;5226837;28;20115;-73
2023/04/18 09:45:06;;;;;;;9.00;4.45;;;;;;;11.94;81.29;101976.78;5206946;28;20021;-72
2023/04/18 09:47:37;;;;;;;7.15;4.25;;;;;;;11.21;85.28;101984.16;5225063;28;20333;-72
2023/04/18 09:50:09;;;;;;;7.30;4.28;;;;;;;11.06;84.43;101988.72;5226086;28;20122;-72
2023/04/18 09:52:41;;;;;;;7.75;4.40;;;;;;;10.72;85.39;101986.63;5228436;28;20024;-75
2023/04/18 09:55:18;;;;;;;7.47;4.47;;;;;;;10.79;85.14;101990.88;5224022;28;20028;-73
2023/04/18 09:57:51;;;;;;;7.90;4.70;;;;;;;10.63;86.32;101981.50;5223368;28;20032;-73
2023/04/18 10:00:24;;;;;;;8.70;4.53;;;;;;;10.34;87.10;101983.66;5225544;28;20207;-72
2023/04/18 10:02:58;;;;;;;7.35;3.90;;;;;;;10.55;87.40;101983.38;5225170;28;20025;-72
2023/04/18 10:05:33;;;;;;;6.05;3.53;;;;;;;10.85;83.89;101973.34;5219558;28;20029;-72
2023/04/18 10:08:05;;;;;;;7.03;3.83;;;;;;;10.77;84.55;101984.81;5225843;28;20021;-75
2023/04/18 10:10:36;;;;;;;7.38;4.40;;;;;;;10.58;88.91;101980.72;5223529;28;20094;-73
2023/04/18 10:13:09;;;;;;;7.93;4.47;;;;;;;11.01;86.48;101984.47;5225247;28;20461;-73
2023/04/18 10:15:40;;;;;;;7.10;4.18;;;;;;;10.27;88.79;101979.38;5221600;28;20178;-71
2023/04/18 10:18:15;;;;;;;7.53;3.90;;;;;;;10.74;86.92;101990.09;5223309;28;20025;-74
2023/04/18 10:20:45;;;;;;;7.17;4.00;;;;;;;10.69;86.28;101984.91;5231379;28;20107;-72
2023/04/18 10:23:31;;;;;;;8.52;4.30;;;;;;;11.02;84.54;101993.16;5224260;28;20434;-73
2023/04/18 10:26:06;;;;;;;5.45;3.22;;;;;;;10.61;85.23;101992.00;5226574;28;20395;-72
2023/04/18 10:28:56;;;;;;;6.60;3.85;;;;;;;10.55;85.82;101994.69;5223787;28;20036;-73
2023/04/18 10:31:28;;;;;;;5.70;3.28;;;;;;;10.94;85.48;101988.06;5223897;28;20024;-73
2023/04/18 10:33:59;;;;;;;6.47;3.50;;;;;;;11.02;84.12;101993.16;5225971;28;20374;-72
2023/04/18 10:36:29;;;;;;;7.45;3.67;;;;;;;10.75;85.80;101991.81;5227971;28;20036;-74
2023/04/18 10:39:04;;;;;;;6.65;3.47;;;;;;;10.18;88.21;102003.00;5222062;28;20033;-73
2023/04/18 10:41:47;;;;;;;8.33;4.00;;;;;;;10.05;88.85;101994.44;5228685;28;20127;-73
2023/04/18 10:44:21;;;;;;;7.25;3.67;;;;;;;10.13;88.05;101991.75;5228729;28;20086;-72
2023/04/18 10:46:51;;;;;;;6.05;3.30;;;;;;;10.04;88.51;101994.44;5229074;28;20059;-73
2023/04/18 10:49:26;;;;;;;6.22;3.20;;;;;;;10.46;86.75;101984.34;5230249;28;20063;-72
2023/04/18 10:51:58;;;;;;;8.93;3.47;;;;;;;10.50;85.77;101987.81;5227274;28;20051;-73
2023/04/18 10:54:31;;;;;;;6.05;3.28;;;;;;;10.14;86.98;101990.88;5216997;28;20474;-72
2023/04/18 10:57:03;;;;;;;5.82;3.17;;;;;;;10.12;88.49;101987.38;5221225;28;20075;-72
2023/04/18 10:59:37;;;;;;;8.20;3.45;;;;;;;10.14;86.96;101996.94;5231263;28;20340;-71
2023/04/18 11:02:31;;;;;;;5.95;3.28;;;;;;;10.20;88.00;101996.00;5221885;28;20029;-70
2023/04/18 11:05:05;;;;;;;6.35;3.17;;;;;;;10.58;87.05;101993.78;5223987;28;20017;-72
2023/04/18 11:07:44;;;;;;;5.88;3.22;;;;;;;10.20;87.41;101996.00;5230618;28;20501;-71
2023/04/18 11:10:18;;;;;;;7.78;3.67;;;;;;;10.21;87.78;101992.50;5223883;28;20033;-72
2023/04/18 11:12:49;;;;;;;5.43;3.15;;;;;;;10.41;87.02;101993.13;5224523;28;20021;-70
2023/04/18 11:15:24;;;;;;;6.60;3.05;;;;;;;10.41;85.48;101995.75;5229152;28;20537;-72
2023/04/18 11:18:00;;;;;;;5.90;3.20;;;;;;;10.92;83.45;101990.72;5222265;28;20087;-73
2023/04/18 11:20:38;;;;;;;6.63;3.30;;;;;;;10.82;83.64;101990.88;5227902;28;20039;-73
2023/04/18 11:23:21;;;;;;;6.55;3.20;;;;;;;10.76;83.60;101990.94;5226429;28;20064;-72
2023/04/18 11:25:55;;;;;;;7.55;3.42;;;;;;;10.68;84.06;101987.56;5228160;28;20164;-73
2023/04/18 11:28:25;;;;;;;6.85;3.78;;;;;;;10.78;84.47;101984.81;5234430;28;20025;-72
2023/04/18 11:31:01;;;;;;;6.10;3.20;;;;;;;10.95;83.84;101977.59;5231208;28;20024;-73
2023/04/18 11:33:31;;;;;;;5.88;3.55;;;;;;;10.63;84.13;101986.75;5229535;28;20809;-73
2023/04/18 11:36:02;;;;;;;5.60;3.30;;;;;;;10.47;85.46;101986.09;5226785;28;20033;-72
2023/04/18 11:38:33;;;;;;;7.53;3.83;;;;;;;10.74;85.43;101979.63;5231505;28;20025;-75